Paraopeba, Brazil
Current Conditions -  °F | °C
As of 6:00 PM on Thursday 23 Oct 2014 (Local Time) from SBCF Reporting Station
Few Clouds Few Clouds  
Wind Chill: 79°   Ceiling: Unl
Heat Index: 79°   Visibility: 6mi
Dew Point: 55°   Wind: 14mph
Humidity: 44%   Direction: 90°E
Pressure: 30.06"   Gusts: NA
Location:  19.27°S, 44.4°W
Report Text: SBCF 232000Z 09012KT 9999 FEW040 26/13 Q1018
Loading
Personal Weather Stations






























Interactive Weather Map
Tropical Storm Tracking
New forecast layout! Learn more

10-Day Weather Forecast

Advertisements
Track Severe Weather on mobile